sensor_id;sensor_type;location;lat;lon;timestamp;temperature;humidity
21193;DHT22;10754;51.106;7.164;2023-03-14T00:01:44;14.30;1.00
21193;DHT22;10754;51.106;7.164;2023-03-14T00:04:10;14.20;1.00
21193;DHT22;10754;51.106;7.164;2023-03-14T00:06:35;14.10;1.00
21193;DHT22;10754;51.106;7.164;2023-03-14T00:09:01;14.30;1.00
21193;DHT22;10754;51.106;7.164;2023-03-14T00:11:26;14.30;1.00
21193;DHT22;10754;51.106;7.164;2023-03-14T00:13:52;14.30;1.00
21193;DHT22;10754;51.106;7.164;2023-03-14T00:16:19;14.20;1.00
21193;DHT22;10754;51.106;7.164;2023-03-14T00:18:44;14.40;1.00
21193;DHT22;10754;51.106;7.164;2023-03-14T00:21:11;14.30;1.00
21193;DHT22;10754;51.106;7.164;2023-03-14T00:23:38;14.30;1.00
21193;DHT22;10754;51.106;7.164;2023-03-14T00:26:10;14.50;1.00
21193;DHT22;10754;51.106;7.164;2023-03-14T00:28:36;14.50;1.00
21193;DHT22;10754;51.106;7.164;2023-03-14T00:31:06;14.50;1.00
21193;DHT22;10754;51.106;7.164;2023-03-14T00:33:32;14.40;1.00
21193;DHT22;10754;51.106;7.164;2023-03-14T00:36:03;14.40;1.00
21193;DHT22;10754;51.106;7.164;2023-03-14T00:38:30;14.40;1.00
21193;DHT22;10754;51.106;7.164;2023-03-14T00:40:56;14.30;1.00
21193;DHT22;10754;51.106;7.164;2023-03-14T00:43:22;14.50;1.00
21193;DHT22;10754;51.106;7.164;2023-03-14T00:45:52;14.40;1.00
21193;DHT22;10754;51.106;7.164;2023-03-14T00:48:19;14.40;1.00
21193;DHT22;10754;51.106;7.164;2023-03-14T00:50:45;14.50;1.00
21193;DHT22;10754;51.106;7.164;2023-03-14T00:53:11;14.50;1.00
21193;DHT22;10754;51.106;7.164;2023-03-14T00:55:38;14.80;1.00
21193;DHT22;10754;51.106;7.164;2023-03-14T00:58:04;14.60;1.00
21193;DHT22;10754;51.106;7.164;2023-03-14T01:00:30;14.50;1.00
21193;DHT22;10754;51.106;7.164;2023-03-14T01:02:56;14.60;1.00
21193;DHT22;10754;51.106;7.164;2023-03-14T01:05:22;14.70;1.00
21193;DHT22;10754;51.106;7.164;2023-03-14T01:07:48;14.80;1.00
21193;DHT22;10754;51.106;7.164;2023-03-14T01:10:13;14.30;1.00
21193;DHT22;10754;51.106;7.164;2023-03-14T01:12:39;14.50;1.00
21193;DHT22;10754;51.106;7.164;2023-03-14T01:15:05;13.70;1.00
21193;DHT22;10754;51.106;7.164;2023-03-14T01:17:30;13.40;1.00
21193;DHT22;10754;51.106;7.164;2023-03-14T01:19:56;13.10;1.00
21193;DHT22;10754;51.106;7.164;2023-03-14T01:22:21;12.80;1.00
21193;DHT22;10754;51.106;7.164;2023-03-14T01:24:47;12.80;1.00
21193;DHT22;10754;51.106;7.164;2023-03-14T01:27:13;12.60;1.00
21193;DHT22;10754;51.106;7.164;2023-03-14T01:29:38;12.70;1.00
21193;DHT22;10754;51.106;7.164;2023-03-14T01:32:04;12.90;1.00
21193;DHT22;10754;51.106;7.164;2023-03-14T01:34:29;12.90;1.00
21193;DHT22;10754;51.106;7.164;2023-03-14T01:36:55;12.90;1.00
21193;DHT22;10754;51.106;7.164;2023-03-14T01:39:20;12.90;1.00
21193;DHT22;10754;51.106;7.164;2023-03-14T01:41:46;12.40;1.00
21193;DHT22;10754;51.106;7.164;2023-03-14T01:44:12;12.60;1.00
21193;DHT22;10754;51.106;7.164;2023-03-14T01:46:41;12.90;1.00
21193;DHT22;10754;51.106;7.164;2023-03-14T01:49:21;12.60;1.00
21193;DHT22;10754;51.106;7.164;2023-03-14T01:51:57;12.50;1.00
21193;DHT22;10754;51.106;7.164;2023-03-14T01:54:28;12.30;1.00
21193;DHT22;10754;51.106;7.164;2023-03-14T01:57:20;12.10;1.00
21193;DHT22;10754;51.106;7.164;2023-03-14T01:59:54;12.10;1.00
21193;DHT22;10754;51.106;7.164;2023-03-14T02:02:22;12.20;1.00
21193;DHT22;10754;51.106;7.164;2023-03-14T02:04:49;12.30;1.00
21193;DHT22;10754;51.106;7.164;2023-03-14T02:07:20;12.30;1.00
21193;DHT22;10754;51.106;7.164;2023-03-14T02:09:48;12.20;1.00
21193;DHT22;10754;51.106;7.164;2023-03-14T02:12:15;12.10;1.00
21193;DHT22;10754;51.106;7.164;2023-03-14T02:14:42;12.10;1.00
21193;DHT22;10754;51.106;7.164;2023-03-14T02:17:13;12.20;1.00
21193;DHT22;10754;51.106;7.164;2023-03-14T02:22:20;12.30;1.00
21193;DHT22;10754;51.106;7.164;2023-03-14T02:27:13;12.50;1.00
21193;DHT22;10754;51.106;7.164;2023-03-14T02:32:21;12.60;1.00
21193;DHT22;10754;51.106;7.164;2023-03-14T02:34:50;12.60;1.00
21193;DHT22;10754;51.106;7.164;2023-03-14T02:37:18;12.60;1.00
21193;DHT22;10754;51.106;7.164;2023-03-14T02:39:45;12.70;1.00
21193;DHT22;10754;51.106;7.164;2023-03-14T02:42:13;13.00;1.00
21193;DHT22;10754;51.106;7.164;2023-03-14T02:47:34;13.00;1.00
21193;DHT22;10754;51.106;7.164;2023-03-14T02:50:06;12.90;1.00
21193;DHT22;10754;51.106;7.164;2023-03-14T02:52:33;12.70;1.00
21193;DHT22;10754;51.106;7.164;2023-03-14T02:54:58;12.70;1.00
21193;DHT22;10754;51.106;7.164;2023-03-14T02:57:24;12.80;1.00
21193;DHT22;10754;51.106;7.164;2023-03-14T02:59:50;12.50;1.00
21193;DHT22;10754;51.106;7.164;2023-03-14T03:02:15;12.40;1.00
21193;DHT22;10754;51.106;7.164;2023-03-14T03:04:41;12.30;1.00
21193;DHT22;10754;51.106;7.164;2023-03-14T03:07:06;12.40;1.00
21193;DHT22;10754;51.106;7.164;2023-03-14T03:09:32;12.30;1.00
21193;DHT22;10754;51.106;7.164;2023-03-14T03:11:57;12.40;1.00
21193;DHT22;10754;51.106;7.164;2023-03-14T03:14:23;12.50;1.00
21193;DHT22;10754;51.106;7.164;2023-03-14T03:16:48;12.60;1.00
21193;DHT22;10754;51.106;7.164;2023-03-14T03:19:14;12.70;1.00
21193;DHT22;10754;51.106;7.164;2023-03-14T03:21:41;12.70;1.00
21193;DHT22;10754;51.106;7.164;2023-03-14T03:24:06;12.70;1.00
21193;DHT22;10754;51.106;7.164;2023-03-14T03:26:34;12.60;1.00
21193;DHT22;10754;51.106;7.164;2023-03-14T03:28:59;12.60;1.00
21193;DHT22;10754;51.106;7.164;2023-03-14T03:31:25;12.60;1.00
21193;DHT22;10754;51.106;7.164;2023-03-14T03:33:51;12.60;1.00
21193;DHT22;10754;51.106;7.164;2023-03-14T03:36:21;12.70;1.00
21193;DHT22;10754;51.106;7.164;2023-03-14T03:38:46;12.70;1.00
21193;DHT22;10754;51.106;7.164;2023-03-14T03:41:12;12.80;1.00
21193;DHT22;10754;51.106;7.164;2023-03-14T03:43:37;12.80;1.00
21193;DHT22;10754;51.106;7.164;2023-03-14T03:46:04;12.90;1.00
21193;DHT22;10754;51.106;7.164;2023-03-14T03:48:30;12.80;1.00
21193;DHT22;10754;51.106;7.164;2023-03-14T03:50:55;12.80;1.00
21193;DHT22;10754;51.106;7.164;2023-03-14T03:53:21;12.70;1.00
21193;DHT22;10754;51.106;7.164;2023-03-14T03:55:47;12.60;1.00
21193;DHT22;10754;51.106;7.164;2023-03-14T03:58:12;12.60;1.00
21193;DHT22;10754;51.106;7.164;2023-03-14T04:00:38;12.60;1.00
21193;DHT22;10754;51.106;7.164;2023-03-14T04:03:04;12.60;1.00
21193;DHT22;10754;51.106;7.164;2023-03-14T04:05:30;12.60;1.00
21193;DHT22;10754;51.106;7.164;2023-03-14T04:07:55;12.70;1.00
21193;DHT22;10754;51.106;7.164;2023-03-14T04:10:21;12.80;1.00
21193;DHT22;10754;51.106;7.164;2023-03-14T04:12:46;12.90;1.00
21193;DHT22;10754;51.106;7.164;2023-03-14T04:15:12;12.80;1.00
21193;DHT22;10754;51.106;7.164;2023-03-14T04:17:37;12.80;1.00
21193;DHT22;10754;51.106;7.164;2023-03-14T04:20:03;12.80;1.00
21193;DHT22;10754;51.106;7.164;2023-03-14T04:22:29;12.80;1.00
21193;DHT22;10754;51.106;7.164;2023-03-14T04:24:55;12.80;1.00
21193;DHT22;10754;51.106;7.164;2023-03-14T04:27:20;12.70;1.00
21193;DHT22;10754;51.106;7.164;2023-03-14T04:29:46;12.80;1.00
21193;DHT22;10754;51.106;7.164;2023-03-14T04:32:11;12.70;1.00
21193;DHT22;10754;51.106;7.164;2023-03-14T04:34:37;12.70;1.00
21193;DHT22;10754;51.106;7.164;2023-03-14T04:37:02;12.60;1.00
21193;DHT22;10754;51.106;7.164;2023-03-14T04:39:28;12.60;1.00
21193;DHT22;10754;51.106;7.164;2023-03-14T04:41:54;12.50;1.00
21193;DHT22;10754;51.106;7.164;2023-03-14T04:44:19;12.60;1.00
21193;DHT22;10754;51.106;7.164;2023-03-14T04:46:45;12.60;1.00
21193;DHT22;10754;51.106;7.164;2023-03-14T04:49:10;12.50;1.00
21193;DHT22;10754;51.106;7.164;2023-03-14T04:51:36;12.50;1.00
21193;DHT22;10754;51.106;7.164;2023-03-14T04:54:01;12.50;1.00
21193;DHT22;10754;51.106;7.164;2023-03-14T04:56:27;12.60;1.00
21193;DHT22;10754;51.106;7.164;2023-03-14T04:58:53;12.60;1.00
21193;DHT22;10754;51.106;7.164;2023-03-14T05:01:18;12.50;1.00
21193;DHT22;10754;51.106;7.164;2023-03-14T05:03:44;12.50;1.00
21193;DHT22;10754;51.106;7.164;2023-03-14T05:06:09;12.40;1.00
21193;DHT22;10754;51.106;7.164;2023-03-14T05:08:35;12.60;1.00
21193;DHT22;10754;51.106;7.164;2023-03-14T05:11:00;12.70;1.00
21193;DHT22;10754;51.106;7.164;2023-03-14T05:13:26;12.70;1.00
21193;DHT22;10754;51.106;7.164;2023-03-14T05:15:52;12.70;1.00
21193;DHT22;10754;51.106;7.164;2023-03-14T05:18:18;12.70;1.00
21193;DHT22;10754;51.106;7.164;2023-03-14T05:20:43;12.60;1.00
21193;DHT22;10754;51.106;7.164;2023-03-14T05:23:09;12.70;1.00
21193;DHT22;10754;51.106;7.164;2023-03-14T05:25:35;12.70;1.00
21193;DHT22;10754;51.106;7.164;2023-03-14T05:28:00;12.80;1.00
21193;DHT22;10754;51.106;7.164;2023-03-14T05:30:26;12.80;1.00
21193;DHT22;10754;51.106;7.164;2023-03-14T05:32:53;12.80;1.00
21193;DHT22;10754;51.106;7.164;2023-03-14T05:35:19;12.80;1.00
21193;DHT22;10754;51.106;7.164;2023-03-14T05:37:45;12.90;1.00
21193;DHT22;10754;51.106;7.164;2023-03-14T05:40:10;13.10;1.00
21193;DHT22;10754;51.106;7.164;2023-03-14T05:42:36;12.90;1.00
21193;DHT22;10754;51.106;7.164;2023-03-14T05:45:02;12.90;1.00
21193;DHT22;10754;51.106;7.164;2023-03-14T05:47:27;13.10;1.00
21193;DHT22;10754;51.106;7.164;2023-03-14T05:49:53;13.10;1.00
21193;DHT22;10754;51.106;7.164;2023-03-14T05:52:18;12.70;1.00
21193;DHT22;10754;51.106;7.164;2023-03-14T05:54:44;12.80;1.00
21193;DHT22;10754;51.106;7.164;2023-03-14T05:57:09;12.80;1.00
21193;DHT22;10754;51.106;7.164;2023-03-14T05:59:35;12.90;1.00
21193;DHT22;10754;51.106;7.164;2023-03-14T06:02:01;12.80;1.00
21193;DHT22;10754;51.106;7.164;2023-03-14T06:04:26;12.90;1.00
21193;DHT22;10754;51.106;7.164;2023-03-14T06:06:52;13.00;1.00
21193;DHT22;10754;51.106;7.164;2023-03-14T06:09:17;13.00;1.00
21193;DHT22;10754;51.106;7.164;2023-03-14T06:11:45;12.90;1.00
21193;DHT22;10754;51.106;7.164;2023-03-14T06:14:12;13.00;1.00
21193;DHT22;10754;51.106;7.164;2023-03-14T06:16:37;13.30;1.00
21193;DHT22;10754;51.106;7.164;2023-03-14T06:19:03;13.20;1.00
21193;DHT22;10754;51.106;7.164;2023-03-14T06:21:28;13.00;1.00
21193;DHT22;10754;51.106;7.164;2023-03-14T06:23:54;12.80;1.00
21193;DHT22;10754;51.106;7.164;2023-03-14T06:26:19;12.90;1.00
21193;DHT22;10754;51.106;7.164;2023-03-14T06:28:45;13.30;1.00
21193;DHT22;10754;51.106;7.164;2023-03-14T06:31:10;13.20;1.00
21193;DHT22;10754;51.106;7.164;2023-03-14T06:33:36;13.10;1.00
21193;DHT22;10754;51.106;7.164;2023-03-14T06:36:01;12.90;1.00
21193;DHT22;10754;51.106;7.164;2023-03-14T06:38:27;12.90;1.00
21193;DHT22;10754;51.106;7.164;2023-03-14T06:40:52;12.90;1.00
21193;DHT22;10754;51.106;7.164;2023-03-14T06:43:18;12.80;1.00
21193;DHT22;10754;51.106;7.164;2023-03-14T06:45:43;13.00;1.00
21193;DHT22;10754;51.106;7.164;2023-03-14T06:48:09;12.90;1.00
21193;DHT22;10754;51.106;7.164;2023-03-14T06:50:34;12.90;1.00
21193;DHT22;10754;51.106;7.164;2023-03-14T06:53:00;13.00;1.00
21193;DHT22;10754;51.106;7.164;2023-03-14T06:55:25;12.90;1.00
21193;DHT22;10754;51.106;7.164;2023-03-14T06:57:51;13.00;1.00
21193;DHT22;10754;51.106;7.164;2023-03-14T07:00:17;12.90;1.00
21193;DHT22;10754;51.106;7.164;2023-03-14T07:02:42;12.90;1.00
21193;DHT22;10754;51.106;7.164;2023-03-14T07:05:08;12.90;1.00
21193;DHT22;10754;51.106;7.164;2023-03-14T07:07:35;12.80;1.00
21193;DHT22;10754;51.106;7.164;2023-03-14T07:10:01;12.90;1.00
21193;DHT22;10754;51.106;7.164;2023-03-14T07:12:26;12.90;1.00
21193;DHT22;10754;51.106;7.164;2023-03-14T07:14:52;12.90;1.00
21193;DHT22;10754;51.106;7.164;2023-03-14T07:17:17;12.80;1.00
21193;DHT22;10754;51.106;7.164;2023-03-14T07:19:43;12.80;1.00
21193;DHT22;10754;51.106;7.164;2023-03-14T07:22:08;13.00;1.00
21193;DHT22;10754;51.106;7.164;2023-03-14T07:24:34;13.00;1.00
21193;DHT22;10754;51.106;7.164;2023-03-14T07:26:59;13.60;1.00
21193;DHT22;10754;51.106;7.164;2023-03-14T07:29:25;13.30;1.00
21193;DHT22;10754;51.106;7.164;2023-03-14T07:31:50;13.20;1.00
21193;DHT22;10754;51.106;7.164;2023-03-14T07:34:16;13.30;1.00
21193;DHT22;10754;51.106;7.164;2023-03-14T07:36:41;13.60;1.00
21193;DHT22;10754;51.106;7.164;2023-03-14T07:39:07;13.60;1.00
21193;DHT22;10754;51.106;7.164;2023-03-14T07:41:33;13.60;1.00
21193;DHT22;10754;51.106;7.164;2023-03-14T07:43:58;13.70;1.00
21193;DHT22;10754;51.106;7.164;2023-03-14T07:46:23;13.60;1.00
21193;DHT22;10754;51.106;7.164;2023-03-14T07:48:49;13.30;1.00
21193;DHT22;10754;51.106;7.164;2023-03-14T07:51:14;13.30;1.00
21193;DHT22;10754;51.106;7.164;2023-03-14T07:53:40;13.20;1.00
21193;DHT22;10754;51.106;7.164;2023-03-14T07:56:06;13.40;1.00
21193;DHT22;10754;51.106;7.164;2023-03-14T07:58:32;13.40;1.00
21193;DHT22;10754;51.106;7.164;2023-03-14T08:00:58;13.60;1.00
21193;DHT22;10754;51.106;7.164;2023-03-14T08:03:24;13.50;1.00
21193;DHT22;10754;51.106;7.164;2023-03-14T08:05:50;13.80;1.00
21193;DHT22;10754;51.106;7.164;2023-03-14T08:08:16;13.60;1.00
21193;DHT22;10754;51.106;7.164;2023-03-14T08:10:42;13.50;1.00
21193;DHT22;10754;51.106;7.164;2023-03-14T08:13:09;13.60;1.00
21193;DHT22;10754;51.106;7.164;2023-03-14T08:15:35;13.50;1.00
21193;DHT22;10754;51.106;7.164;2023-03-14T08:18:02;13.50;1.00
21193;DHT22;10754;51.106;7.164;2023-03-14T08:20:29;13.50;1.00
21193;DHT22;10754;51.106;7.164;2023-03-14T08:22:59;13.80;1.00
21193;DHT22;10754;51.106;7.164;2023-03-14T08:25:26;13.80;1.00
21193;DHT22;10754;51.106;7.164;2023-03-14T08:27:52;13.70;1.00
21193;DHT22;10754;51.106;7.164;2023-03-14T08:30:19;14.20;1.00
21193;DHT22;10754;51.106;7.164;2023-03-14T08:32:45;13.90;1.00
21193;DHT22;10754;51.106;7.164;2023-03-14T08:35:11;13.80;1.00
21193;DHT22;10754;51.106;7.164;2023-03-14T08:37:36;13.70;1.00
21193;DHT22;10754;51.106;7.164;2023-03-14T08:40:04;14.10;1.00
21193;DHT22;10754;51.106;7.164;2023-03-14T08:42:34;14.00;1.00
21193;DHT22;10754;51.106;7.164;2023-03-14T08:45:00;14.00;1.00
21193;DHT22;10754;51.106;7.164;2023-03-14T08:47:26;13.90;1.00
21193;DHT22;10754;51.106;7.164;2023-03-14T08:49:51;13.90;1.00
21193;DHT22;10754;51.106;7.164;2023-03-14T08:52:17;13.90;1.00
21193;DHT22;10754;51.106;7.164;2023-03-14T08:54:45;13.80;1.00
21193;DHT22;10754;51.106;7.164;2023-03-14T08:57:11;13.80;1.00
21193;DHT22;10754;51.106;7.164;2023-03-14T08:59:36;13.70;1.00
21193;DHT22;10754;51.106;7.164;2023-03-14T09:02:02;14.00;1.00
21193;DHT22;10754;51.106;7.164;2023-03-14T09:04:32;14.00;1.00
21193;DHT22;10754;51.106;7.164;2023-03-14T09:06:58;14.20;1.00
21193;DHT22;10754;51.106;7.164;2023-03-14T09:09:25;14.30;1.00
21193;DHT22;10754;51.106;7.164;2023-03-14T09:11:52;14.30;1.00
21193;DHT22;10754;51.106;7.164;2023-03-14T09:14:17;14.30;1.00
21193;DHT22;10754;51.106;7.164;2023-03-14T09:16:43;13.90;1.00
21193;DHT22;10754;51.106;7.164;2023-03-14T09:19:08;13.90;1.00
21193;DHT22;10754;51.106;7.164;2023-03-14T09:21:34;13.70;1.00
21193;DHT22;10754;51.106;7.164;2023-03-14T09:24:00;13.70;1.00
21193;DHT22;10754;51.106;7.164;2023-03-14T09:26:25;13.80;1.00
21193;DHT22;10754;51.106;7.164;2023-03-14T09:28:51;13.80;1.00
21193;DHT22;10754;51.106;7.164;2023-03-14T09:31:16;13.80;1.00
21193;DHT22;10754;51.106;7.164;2023-03-14T09:33:42;13.80;1.00
21193;DHT22;10754;51.106;7.164;2023-03-14T09:36:07;13.90;1.00
21193;DHT22;10754;51.106;7.164;2023-03-14T09:38:34;13.70;1.00
21193;DHT22;10754;51.106;7.164;2023-03-14T09:41:01;13.70;1.00
21193;DHT22;10754;51.106;7.164;2023-03-14T09:43:30;14.00;1.00
21193;DHT22;10754;51.106;7.164;2023-03-14T09:45:57;13.80;1.00
21193;DHT22;10754;51.106;7.164;2023-03-14T09:48:29;13.40;1.00
21193;DHT22;10754;51.106;7.164;2023-03-14T09:50:57;13.00;1.00
21193;DHT22;10754;51.106;7.164;2023-03-14T09:53:28;12.90;1.00
21193;DHT22;10754;51.106;7.164;2023-03-14T09:55:58;12.80;1.00
21193;DHT22;10754;51.106;7.164;2023-03-14T09:58:24;12.50;1.00
21193;DHT22;10754;51.106;7.164;2023-03-14T10:00:52;12.50;1.00
21193;DHT22;10754;51.106;7.164;2023-03-14T10:05:54;11.90;1.00
21193;DHT22;10754;51.106;7.164;2023-03-14T10:08:20;12.00;1.00
21193;DHT22;10754;51.106;7.164;2023-03-14T10:10:45;12.10;1.00
21193;DHT22;10754;51.106;7.164;2023-03-14T10:15:40;11.80;1.00
21193;DHT22;10754;51.106;7.164;2023-03-14T10:18:11;11.80;1.00
21193;DHT22;10754;51.106;7.164;2023-03-14T10:20:49;11.90;1.00
21193;DHT22;10754;51.106;7.164;2023-03-14T10:23:28;11.90;1.00
21193;DHT22;10754;51.106;7.164;2023-03-14T10:26:08;11.80;1.00
21193;DHT22;10754;51.106;7.164;2023-03-14T10:28:41;12.00;1.00
21193;DHT22;10754;51.106;7.164;2023-03-14T10:31:07;11.80;1.00
21193;DHT22;10754;51.106;7.164;2023-03-14T10:33:35;11.60;1.00
21193;DHT22;10754;51.106;7.164;2023-03-14T10:38:35;11.80;1.00
21193;DHT22;10754;51.106;7.164;2023-03-14T10:41:02;11.50;1.00
21193;DHT22;10754;51.106;7.164;2023-03-14T10:43:38;11.30;1.00
21193;DHT22;10754;51.106;7.164;2023-03-14T10:46:18;11.40;1.00
21193;DHT22;10754;51.106;7.164;2023-03-14T10:48:44;11.50;1.00
21193;DHT22;10754;51.106;7.164;2023-03-14T10:54:12;11.20;1.00
21193;DHT22;10754;51.106;7.164;2023-03-14T10:56:38;11.40;1.00
21193;DHT22;10754;51.106;7.164;2023-03-14T10:59:10;11.30;1.00
21193;DHT22;10754;51.106;7.164;2023-03-14T11:02:00;11.30;1.00
21193;DHT22;10754;51.106;7.164;2023-03-14T11:04:49;11.30;1.00
21193;DHT22;10754;51.106;7.164;2023-03-14T11:07:36;11.50;1.00
21193;DHT22;10754;51.106;7.164;2023-03-14T11:10:24;11.40;1.00
21193;DHT22;10754;51.106;7.164;2023-03-14T11:16:09;11.10;1.00
21193;DHT22;10754;51.106;7.164;2023-03-14T11:18:51;10.80;1.00
21193;DHT22;10754;51.106;7.164;2023-03-14T11:26:55;10.90;4.30
21193;DHT22;10754;51.106;7.164;2023-03-14T11:29:43;11.00;1.00
21193;DHT22;10754;51.106;7.164;2023-03-14T11:32:23;11.10;1.00
21193;DHT22;10754;51.106;7.164;2023-03-14T11:34:54;10.90;1.00
21193;DHT22;10754;51.106;7.164;2023-03-14T11:37:28;10.90;1.70
21193;DHT22;10754;51.106;7.164;2023-03-14T11:40:21;10.90;8.10
21193;DHT22;10754;51.106;7.164;2023-03-14T11:45:47;11.30;1.00
21193;DHT22;10754;51.106;7.164;2023-03-14T11:48:40;11.20;1.00
21193;DHT22;10754;51.106;7.164;2023-03-14T11:51:13;11.00;1.00
21193;DHT22;10754;51.106;7.164;2023-03-14T11:53:50;11.00;1.00
21193;DHT22;10754;51.106;7.164;2023-03-14T11:56:31;10.90;1.00
21193;DHT22;10754;51.106;7.164;2023-03-14T11:59:05;11.00;1.00
21193;DHT22;10754;51.106;7.164;2023-03-14T12:01:40;10.90;1.00
21193;DHT22;10754;51.106;7.164;2023-03-14T12:04:30;11.00;1.00
21193;DHT22;10754;51.106;7.164;2023-03-14T12:06:57;11.00;1.00
21193;DHT22;10754;51.106;7.164;2023-03-14T12:09:27;11.10;1.00
21193;DHT22;10754;51.106;7.164;2023-03-14T12:11:56;11.00;1.00
21193;DHT22;10754;51.106;7.164;2023-03-14T12:14:31;10.90;1.00
21193;DHT22;10754;51.106;7.164;2023-03-14T12:17:04;10.90;1.00
21193;DHT22;10754;51.106;7.164;2023-03-14T12:19:32;11.00;1.00
21193;DHT22;10754;51.106;7.164;2023-03-14T12:22:02;11.00;1.00
21193;DHT22;10754;51.106;7.164;2023-03-14T12:24:37;10.90;1.00
21193;DHT22;10754;51.106;7.164;2023-03-14T12:27:05;10.80;1.00
21193;DHT22;10754;51.106;7.164;2023-03-14T12:29:31;10.80;1.00
21193;DHT22;10754;51.106;7.164;2023-03-14T12:34:32;10.80;1.20
21193;DHT22;10754;51.106;7.164;2023-03-14T12:37:23;10.90;1.00
21193;DHT22;10754;51.106;7.164;2023-03-14T12:40:13;11.00;15.40
21193;DHT22;10754;51.106;7.164;2023-03-14T12:42:58;10.90;14.10
21193;DHT22;10754;51.106;7.164;2023-03-14T12:45:36;10.90;1.00
21193;DHT22;10754;51.106;7.164;2023-03-14T12:48:22;11.00;1.00
21193;DHT22;10754;51.106;7.164;2023-03-14T12:51:04;10.60;1.00
21193;DHT22;10754;51.106;7.164;2023-03-14T12:54:00;10.70;1.00
21193;DHT22;10754;51.106;7.164;2023-03-14T12:59:36;10.80;1.00
21193;DHT22;10754;51.106;7.164;2023-03-14T13:04:47;11.00;44.80
21193;DHT22;10754;51.106;7.164;2023-03-14T13:07:39;11.30;55.00
21193;DHT22;10754;51.106;7.164;2023-03-14T13:10:22;11.60;37.90
21193;DHT22;10754;51.106;7.164;2023-03-14T13:12:56;11.60;1.00
21193;DHT22;10754;51.106;7.164;2023-03-14T13:15:24;11.50;1.00
21193;DHT22;10754;51.106;7.164;2023-03-14T13:17:54;11.40;1.00
21193;DHT22;10754;51.106;7.164;2023-03-14T13:20:26;11.30;3.20
21193;DHT22;10754;51.106;7.164;2023-03-14T13:22:54;11.40;1.90
21193;DHT22;10754;51.106;7.164;2023-03-14T13:25:19;11.30;1.00
21193;DHT22;10754;51.106;7.164;2023-03-14T13:27:47;11.30;1.00
21193;DHT22;10754;51.106;7.164;2023-03-14T13:30:21;11.20;1.00
21193;DHT22;10754;51.106;7.164;2023-03-14T13:32:48;11.20;1.00
21193;DHT22;10754;51.106;7.164;2023-03-14T13:35:26;11.20;1.00
21193;DHT22;10754;51.106;7.164;2023-03-14T13:38:00;11.40;1.00
21193;DHT22;10754;51.106;7.164;2023-03-14T13:40:30;11.40;1.00
21193;DHT22;10754;51.106;7.164;2023-03-14T13:43:16;11.60;1.00
21193;DHT22;10754;51.106;7.164;2023-03-14T13:45:45;11.60;1.00
21193;DHT22;10754;51.106;7.164;2023-03-14T13:48:12;11.50;1.00
21193;DHT22;10754;51.106;7.164;2023-03-14T13:50:50;11.40;1.00
21193;DHT22;10754;51.106;7.164;2023-03-14T13:53:17;11.40;1.00
21193;DHT22;10754;51.106;7.164;2023-03-14T13:55:43;11.40;1.00
21193;DHT22;10754;51.106;7.164;2023-03-14T13:58:23;11.30;1.00
21193;DHT22;10754;51.106;7.164;2023-03-14T14:03:52;11.30;1.00
21193;DHT22;10754;51.106;7.164;2023-03-14T14:06:31;11.30;1.00
21193;DHT22;10754;51.106;7.164;2023-03-14T14:09:00;11.00;1.00
21193;DHT22;10754;51.106;7.164;2023-03-14T14:11:42;11.10;1.00
21193;DHT22;10754;51.106;7.164;2023-03-14T14:14:57;11.10;1.00
21193;DHT22;10754;51.106;7.164;2023-03-14T14:16:57;11.10;1.00
21193;DHT22;10754;51.106;7.164;2023-03-14T14:19:28;11.00;1.00
21193;DHT22;10754;51.106;7.164;2023-03-14T14:21:55;11.00;1.00
21193;DHT22;10754;51.106;7.164;2023-03-14T14:24:23;11.00;1.00
21193;DHT22;10754;51.106;7.164;2023-03-14T14:26:54;10.90;1.00
21193;DHT22;10754;51.106;7.164;2023-03-14T14:32:24;10.90;9.60
21193;DHT22;10754;51.106;7.164;2023-03-14T14:37:29;11.20;2.90
21193;DHT22;10754;51.106;7.164;2023-03-14T14:39:58;11.30;1.00
21193;DHT22;10754;51.106;7.164;2023-03-14T14:42:31;11.30;1.00
21193;DHT22;10754;51.106;7.164;2023-03-14T14:44:57;11.20;1.00
21193;DHT22;10754;51.106;7.164;2023-03-14T14:47:25;11.20;1.00
21193;DHT22;10754;51.106;7.164;2023-03-14T14:49:53;11.20;1.00
21193;DHT22;10754;51.106;7.164;2023-03-14T14:52:37;11.20;1.00
21193;DHT22;10754;51.106;7.164;2023-03-14T14:55:12;11.10;1.00
21193;DHT22;10754;51.106;7.164;2023-03-14T14:57:39;10.90;1.00
21193;DHT22;10754;51.106;7.164;2023-03-14T15:00:17;10.80;1.00
21193;DHT22;10754;51.106;7.164;2023-03-14T15:02:49;10.90;1.00
21193;DHT22;10754;51.106;7.164;2023-03-14T15:05:24;10.90;1.00
21193;DHT22;10754;51.106;7.164;2023-03-14T15:07:51;11.00;1.00
21193;DHT22;10754;51.106;7.164;2023-03-14T15:10:19;10.80;1.00
21193;DHT22;10754;51.106;7.164;2023-03-14T15:12:45;10.40;1.00
21193;DHT22;10754;51.106;7.164;2023-03-14T15:15:14;10.30;1.00
21193;DHT22;10754;51.106;7.164;2023-03-14T15:17:40;10.30;1.00
21193;DHT22;10754;51.106;7.164;2023-03-14T15:20:10;10.40;7.80
21193;DHT22;10754;51.106;7.164;2023-03-14T15:22:38;10.50;1.00
21193;DHT22;10754;51.106;7.164;2023-03-14T15:25:04;10.70;1.00
21193;DHT22;10754;51.106;7.164;2023-03-14T15:27:31;10.70;1.00
21193;DHT22;10754;51.106;7.164;2023-03-14T15:29:56;10.70;1.00
21193;DHT22;10754;51.106;7.164;2023-03-14T15:32:22;10.80;1.00
21193;DHT22;10754;51.106;7.164;2023-03-14T15:34:47;10.90;4.30
21193;DHT22;10754;51.106;7.164;2023-03-14T15:37:15;10.90;1.00
21193;DHT22;10754;51.106;7.164;2023-03-14T15:39:42;11.00;1.00
21193;DHT22;10754;51.106;7.164;2023-03-14T15:42:08;10.80;1.00
21193;DHT22;10754;51.106;7.164;2023-03-14T15:44:34;10.80;1.00
21193;DHT22;10754;51.106;7.164;2023-03-14T15:46:59;10.90;1.00
21193;DHT22;10754;51.106;7.164;2023-03-14T15:49:25;10.90;1.00
21193;DHT22;10754;51.106;7.164;2023-03-14T15:51:50;10.80;1.00
21193;DHT22;10754;51.106;7.164;2023-03-14T15:54:16;10.70;1.00
21193;DHT22;10754;51.106;7.164;2023-03-14T15:56:41;10.70;1.00
21193;DHT22;10754;51.106;7.164;2023-03-14T15:59:07;10.70;1.00
21193;DHT22;10754;51.106;7.164;2023-03-14T16:01:32;10.60;1.00
21193;DHT22;10754;51.106;7.164;2023-03-14T16:03:58;10.70;1.00
21193;DHT22;10754;51.106;7.164;2023-03-14T16:06:23;10.50;1.00
21193;DHT22;10754;51.106;7.164;2023-03-14T16:08:49;10.50;1.00
21193;DHT22;10754;51.106;7.164;2023-03-14T16:11:15;10.40;1.00
21193;DHT22;10754;51.106;7.164;2023-03-14T16:13:43;10.50;1.00
21193;DHT22;10754;51.106;7.164;2023-03-14T16:16:09;10.30;1.00
21193;DHT22;10754;51.106;7.164;2023-03-14T16:18:36;10.30;1.00
21193;DHT22;10754;51.106;7.164;2023-03-14T16:21:07;10.30;1.00
21193;DHT22;10754;51.106;7.164;2023-03-14T16:23:33;10.30;1.00
21193;DHT22;10754;51.106;7.164;2023-03-14T16:26:03;10.30;1.00
21193;DHT22;10754;51.106;7.164;2023-03-14T16:28:29;10.30;1.00
21193;DHT22;10754;51.106;7.164;2023-03-14T16:31:03;10.30;1.00
21193;DHT22;10754;51.106;7.164;2023-03-14T16:33:29;10.30;1.00
21193;DHT22;10754;51.106;7.164;2023-03-14T16:35:56;10.20;1.00
21193;DHT22;10754;51.106;7.164;2023-03-14T16:38:22;10.20;1.00
21193;DHT22;10754;51.106;7.164;2023-03-14T16:40:56;10.20;1.00
21193;DHT22;10754;51.106;7.164;2023-03-14T16:43:22;10.10;1.00